createdAt,value
2019-03-01T00:01:19.644Z,28.00
2019-03-01T00:04:15.576Z,28.10
2019-03-01T00:07:16.743Z,28.10
2019-03-01T00:10:26.777Z,28.10
2019-03-01T00:13:53.512Z,28.20
2019-03-01T00:17:14.797Z,28.40
2019-03-01T00:20:35.727Z,28.50
2019-03-01T00:23:56.196Z,28.60
2019-03-01T00:27:11.725Z,28.70
2019-03-01T00:30:10.709Z,29.10
2019-03-01T00:33:23.399Z,29.10
2019-03-01T00:36:20.895Z,29.20
2019-03-01T00:39:36.511Z,29.50
2019-03-01T00:42:41.482Z,29.80
2019-03-01T00:45:21.265Z,29.90
2019-03-01T00:48:00.639Z,29.90
2019-03-01T00:50:39.083Z,30.00
2019-03-01T00:53:18.225Z,30.00
2019-03-01T00:55:57.292Z,30.00
2019-03-01T00:58:35.343Z,29.80
2019-03-01T01:01:13.906Z,29.70
2019-03-01T01:03:52.931Z,30.00
2019-03-01T01:06:31.046Z,30.20
2019-03-01T01:09:09.875Z,30.10
2019-03-01T01:11:51.285Z,30.30
2019-03-01T01:14:29.888Z,30.50
2019-03-01T01:17:09.199Z,30.60
2019-03-01T01:19:48.920Z,30.90
2019-03-01T01:22:27.478Z,30.50
2019-03-01T01:25:06.497Z,30.30
2019-03-01T01:27:46.896Z,30.20
2019-03-01T01:30:25.240Z,30.20
2019-03-01T01:33:08.692Z,30.30
2019-03-01T01:35:48.681Z,30.20
2019-03-01T01:38:33.356Z,30.00
2019-03-01T01:41:12.183Z,29.90
2019-03-01T01:43:51.123Z,30.00
2019-03-01T01:46:30.055Z,30.00
2019-03-01T01:49:10.441Z,29.90
2019-03-01T01:51:49.916Z,29.90
2019-03-01T01:54:27.924Z,30.20
2019-03-01T01:57:07.516Z,30.30
2019-03-01T01:59:47.191Z,30.30
2019-03-01T02:02:27.016Z,30.30
2019-03-01T02:05:06.338Z,30.40
2019-03-01T02:07:45.327Z,30.40
2019-03-01T02:10:24.067Z,30.30
2019-03-01T02:13:02.836Z,30.30
2019-03-01T02:15:44.226Z,30.90
2019-03-01T02:18:23.720Z,31.40
2019-03-01T02:21:01.760Z,31.90
2019-03-01T02:23:41.590Z,32.00
2019-03-01T02:26:21.031Z,32.00
2019-03-01T02:29:00.157Z,31.80
2019-03-01T02:31:40.853Z,31.80
2019-03-01T02:34:18.971Z,31.40
2019-03-01T02:37:00.330Z,31.10
2019-03-01T02:39:39.785Z,31.50
2019-03-01T02:42:18.614Z,32.00
2019-03-01T02:44:56.650Z,32.50
2019-03-01T02:47:35.226Z,32.50
2019-03-01T02:50:14.386Z,31.90
2019-03-01T02:52:53.561Z,32.00
2019-03-01T02:55:35.679Z,32.20
2019-03-01T02:58:13.877Z,32.50
2019-03-01T03:00:53.305Z,32.80
2019-03-01T03:03:31.824Z,32.70
2019-03-01T03:06:24.969Z,32.80
2019-03-01T03:09:04.958Z,33.10
2019-03-01T03:11:45.710Z,32.40
2019-03-01T03:14:24.164Z,32.20
2019-03-01T03:17:02.391Z,32.40
2019-03-01T03:19:41.675Z,32.50
2019-03-01T03:22:20.249Z,33.00
2019-03-01T03:24:58.496Z,32.90
2019-03-01T03:27:38.577Z,33.00
2019-03-01T03:30:23.751Z,33.70
2019-03-01T03:33:02.420Z,33.40
2019-03-01T03:35:41.781Z,33.90
2019-03-01T03:38:21.060Z,34.20
2019-03-01T03:40:59.761Z,34.20
2019-03-01T03:43:39.289Z,34.10
2019-03-01T03:46:17.889Z,34.40
2019-03-01T03:48:55.748Z,34.70
2019-03-01T03:51:33.965Z,34.60
2019-03-01T03:54:12.183Z,34.00
2019-03-01T03:56:52.610Z,34.60
2019-03-01T03:59:33.031Z,33.90
2019-03-01T04:02:11.139Z,34.20
2019-03-01T04:04:50.083Z,33.90
2019-03-01T04:07:29.407Z,33.40
2019-03-01T04:10:08.257Z,33.10
2019-03-01T04:12:47.221Z,33.20
2019-03-01T04:15:26.074Z,33.70
2019-03-01T04:18:04.652Z,33.40
2019-03-01T04:20:43.356Z,32.90
2019-03-01T04:23:21.539Z,32.70
2019-03-01T04:26:00.713Z,32.60
2019-03-01T04:28:41.067Z,32.80
2019-03-01T04:31:20.937Z,32.80
2019-03-01T04:33:58.783Z,32.60
2019-03-01T04:36:37.004Z,32.40
2019-03-01T04:39:16.264Z,32.50
2019-03-01T04:41:54.412Z,32.30
2019-03-01T04:44:34.303Z,32.70
2019-03-01T04:47:12.956Z,32.70
2019-03-01T04:49:51.988Z,32.20
2019-03-01T04:52:37.677Z,32.20
2019-03-01T04:55:24.170Z,31.90
2019-03-01T04:58:03.394Z,32.10
2019-03-01T05:00:41.727Z,32.20
2019-03-01T05:03:20.813Z,32.20
2019-03-01T05:05:58.736Z,32.10
2019-03-01T05:08:37.064Z,31.80
2019-03-01T05:11:16.484Z,32.30
2019-03-01T05:13:54.730Z,32.20
2019-03-01T05:16:33.403Z,32.00
2019-03-01T05:19:12.369Z,31.90
2019-03-01T05:21:51.732Z,32.30
2019-03-01T05:24:29.616Z,32.80
2019-03-01T05:27:08.813Z,33.40
2019-03-01T05:29:48.275Z,33.60
2019-03-01T05:32:28.397Z,33.60
2019-03-01T05:35:07.685Z,33.90
2019-03-01T05:37:51.062Z,33.30
2019-03-01T05:40:29.740Z,33.20
2019-03-01T05:43:08.294Z,33.40
2019-03-01T05:45:47.271Z,33.10
2019-03-01T05:48:26.164Z,33.20
2019-03-01T05:51:04.923Z,33.50
2019-03-01T05:53:44.216Z,33.10
2019-03-01T05:56:22.127Z,33.70
2019-03-01T05:59:27.360Z,33.70
2019-03-01T06:02:41.664Z,33.70
2019-03-01T06:05:25.051Z,34.00
2019-03-01T06:08:18.770Z,33.60
2019-03-01T06:11:35.808Z,34.40
2019-03-01T06:15:02.756Z,34.60
2019-03-01T06:18:11.462Z,34.40
2019-03-01T06:21:31.691Z,33.90
2019-03-01T06:24:59.098Z,33.50
2019-03-01T06:28:29.179Z,34.20
2019-03-01T06:31:44.630Z,34.10
2019-03-01T06:34:54.882Z,34.50
2019-03-01T06:38:07.595Z,34.40
2019-03-01T06:41:37.773Z,34.80
2019-03-01T06:45:00.698Z,34.90
2019-03-01T06:47:52.488Z,35.50
2019-03-01T06:51:05.292Z,35.30
2019-03-01T06:53:43.888Z,35.20
2019-03-01T06:56:22.014Z,34.00
2019-03-01T06:59:03.383Z,34.00
2019-03-01T07:01:45.856Z,33.90
2019-03-01T07:04:24.553Z,34.30
2019-03-01T07:07:02.645Z,34.40
2019-03-01T07:09:44.504Z,34.10
2019-03-01T07:12:23.671Z,34.10
2019-03-01T07:15:01.891Z,34.00
2019-03-01T07:17:43.107Z,34.50
2019-03-01T07:20:21.270Z,34.20
2019-03-01T07:23:01.471Z,34.60
2019-03-01T07:25:42.374Z,34.40
2019-03-01T07:28:21.009Z,34.70
2019-03-01T07:30:59.201Z,35.10
2019-03-01T07:33:38.979Z,34.10
2019-03-01T07:36:19.639Z,33.70
2019-03-01T07:38:58.310Z,33.50
2019-03-01T07:41:38.062Z,33.70
2019-03-01T07:44:16.394Z,33.40
2019-03-01T07:46:57.237Z,33.50
2019-03-01T07:49:37.086Z,32.80
2019-03-01T07:52:16.014Z,32.70
2019-03-01T07:54:54.046Z,32.80
2019-03-01T07:57:32.603Z,32.80
2019-03-01T08:00:14.889Z,32.80
2019-03-01T08:02:54.436Z,32.80
2019-03-01T08:05:35.515Z,32.60
2019-03-01T08:08:14.589Z,32.90
2019-03-01T08:10:53.585Z,33.00
2019-03-01T08:13:36.546Z,32.80
2019-03-01T08:16:16.613Z,32.90
2019-03-01T08:18:56.258Z,33.20
2019-03-01T08:21:35.678Z,33.20
2019-03-01T08:24:15.636Z,32.80
2019-03-01T08:26:54.051Z,32.80
2019-03-01T08:29:54.181Z,33.10
2019-03-01T08:32:37.163Z,32.80
2019-03-01T08:35:25.297Z,33.00
2019-03-01T08:49:18.084Z,32.50
2019-03-01T08:58:50.835Z,32.80
2019-03-01T09:01:32.655Z,32.60
2019-03-01T09:04:17.647Z,32.60
2019-03-01T09:06:56.800Z,32.60
2019-03-01T09:09:41.743Z,32.50
2019-03-01T09:12:21.549Z,32.60
2019-03-01T09:15:09.966Z,32.50
2019-03-01T09:17:49.451Z,32.90
2019-03-01T09:20:38.515Z,32.60
2019-03-01T09:23:25.022Z,32.20
2019-03-01T09:25:59.193Z,32.40
2019-03-01T09:28:40.203Z,32.60
2019-03-01T09:31:26.430Z,32.80
2019-03-01T09:34:06.186Z,32.50
2019-03-01T09:36:48.239Z,32.50
2019-03-01T09:39:27.348Z,32.30
2019-03-01T09:42:06.538Z,32.40
2019-03-01T09:44:47.308Z,32.20
2019-03-01T09:47:25.958Z,32.20
2019-03-01T09:50:04.237Z,32.20
2019-03-01T09:52:43.051Z,32.20
2019-03-01T09:55:20.666Z,32.40
2019-03-01T09:57:58.847Z,32.20
2019-03-01T10:00:38.793Z,32.00
2019-03-01T10:03:24.225Z,32.10
2019-03-01T10:06:03.131Z,32.10
2019-03-01T10:08:40.945Z,32.30
2019-03-01T10:11:19.933Z,32.10
2019-03-01T10:13:59.363Z,32.10
2019-03-01T10:16:41.891Z,32.10
2019-03-01T10:19:20.195Z,31.90
2019-03-01T10:21:59.206Z,31.90
2019-03-01T10:24:38.645Z,31.90
2019-03-01T10:27:17.690Z,31.60
2019-03-01T10:29:57.904Z,31.60
2019-03-01T10:32:40.651Z,31.60
2019-03-01T10:35:19.587Z,31.60
2019-03-01T10:37:58.076Z,31.40
2019-03-01T10:40:37.707Z,31.30
2019-03-01T10:43:16.398Z,31.20
2019-03-01T10:45:55.710Z,31.30
2019-03-01T10:48:34.288Z,31.30
2019-03-01T10:51:16.011Z,31.10
2019-03-01T10:53:54.210Z,31.10
2019-03-01T10:56:31.763Z,31.10
2019-03-01T10:59:12.266Z,31.20
2019-03-01T11:01:52.944Z,31.20
2019-03-01T11:04:34.723Z,31.00
2019-03-01T11:07:14.470Z,30.80
2019-03-01T11:09:55.085Z,30.80
2019-03-01T11:12:34.869Z,30.80
2019-03-01T11:15:16.835Z,30.70
2019-03-01T11:17:54.748Z,30.60
2019-03-01T11:20:36.428Z,30.50
2019-03-01T11:23:14.539Z,30.60
2019-03-01T11:25:54.079Z,30.80
2019-03-01T11:28:32.322Z,30.70
2019-03-01T11:31:12.116Z,30.40
2019-03-01T11:33:52.780Z,30.50
2019-03-01T11:36:31.692Z,30.70
2019-03-01T11:39:13.325Z,30.50
2019-03-01T11:41:51.397Z,30.30
2019-03-01T11:44:29.405Z,30.20
2019-03-01T11:47:09.328Z,30.20
2019-03-01T11:49:47.455Z,30.30
2019-03-01T11:52:27.819Z,30.20
2019-03-01T11:55:07.291Z,30.00
2019-03-01T11:57:48.363Z,30.00
2019-03-01T12:00:31.063Z,30.20
2019-03-01T12:03:11.602Z,30.20
2019-03-01T12:05:50.758Z,30.00
2019-03-01T12:08:29.008Z,30.00
2019-03-01T12:11:09.438Z,29.90
2019-03-01T12:13:49.120Z,30.00
2019-03-01T12:16:27.950Z,29.80
2019-03-01T12:19:08.207Z,29.80
2019-03-01T12:21:47.490Z,29.90
2019-03-01T12:24:27.278Z,30.00
2019-03-01T12:27:05.372Z,29.90
2019-03-01T12:29:46.155Z,29.90
2019-03-01T12:32:26.722Z,29.90
2019-03-01T12:35:06.190Z,30.00
2019-03-01T12:37:47.147Z,30.00
2019-03-01T12:40:28.084Z,30.00
2019-03-01T12:43:08.411Z,29.90
2019-03-01T12:45:47.413Z,30.10
2019-03-01T12:48:25.628Z,30.00
2019-03-01T12:51:05.226Z,29.80
2019-03-01T12:53:44.858Z,29.70
2019-03-01T12:56:23.509Z,29.70
2019-03-01T12:59:01.902Z,30.00
2019-03-01T13:01:41.862Z,29.80
2019-03-01T13:04:19.633Z,29.60
2019-03-01T13:06:57.857Z,29.70
2019-03-01T13:09:38.172Z,29.80
2019-03-01T13:12:22.364Z,29.90
2019-03-01T13:15:01.376Z,29.60
2019-03-01T13:17:40.930Z,29.40
2019-03-01T13:20:19.928Z,29.60
2019-03-01T13:23:00.924Z,29.70
2019-03-01T13:25:38.459Z,29.90
2019-03-01T13:28:19.229Z,29.50
2019-03-01T13:30:58.113Z,29.40
2019-03-01T13:33:38.283Z,29.50
2019-03-01T13:36:17.403Z,29.70
2019-03-01T13:39:01.119Z,29.80
2019-03-01T13:41:42.562Z,29.60
2019-03-01T13:44:23.479Z,29.50
2019-03-01T13:47:05.390Z,29.70
2019-03-01T13:49:43.283Z,29.60
2019-03-01T13:52:21.064Z,29.40
2019-03-01T13:54:59.849Z,29.30
2019-03-01T13:57:39.149Z,29.40
2019-03-01T14:00:19.405Z,29.50
2019-03-01T14:03:01.698Z,29.40
2019-03-01T14:05:40.309Z,29.30
2019-03-01T14:08:18.571Z,29.20
2019-03-01T14:10:59.736Z,29.30
2019-03-01T14:13:37.500Z,29.50
2019-03-01T14:16:20.418Z,29.50
2019-03-01T14:18:59.944Z,29.30
2019-03-01T14:21:37.896Z,29.20
2019-03-01T14:24:17.382Z,29.30
2019-03-01T14:27:04.240Z,29.30
2019-03-01T14:29:52.506Z,29.30
2019-03-01T14:32:27.514Z,29.20
2019-03-01T14:35:06.572Z,29.10
2019-03-01T14:37:54.210Z,29.20
2019-03-01T14:40:31.034Z,29.20
2019-03-01T14:43:12.341Z,29.30
2019-03-01T14:45:54.697Z,29.10
2019-03-01T14:48:38.994Z,29.20
2019-03-01T14:51:18.268Z,29.30
2019-03-01T14:54:07.045Z,29.50
2019-03-01T14:57:22.838Z,29.30
2019-03-01T15:00:27.683Z,29.10
2019-03-01T15:03:38.157Z,29.20
2019-03-01T15:06:19.068Z,29.50
2019-03-01T15:08:59.960Z,29.20
2019-03-01T15:11:44.361Z,29.00
2019-03-01T15:14:33.319Z,29.30
2019-03-01T15:17:18.267Z,29.40
2019-03-01T15:19:59.963Z,29.30
2019-03-01T15:22:45.550Z,29.10
2019-03-01T15:25:24.722Z,29.30
2019-03-01T15:28:07.146Z,29.40
2019-03-01T15:30:47.886Z,29.40
2019-03-01T15:33:26.957Z,29.20
2019-03-01T15:36:09.088Z,29.20
2019-03-01T15:38:58.525Z,29.40
2019-03-01T15:41:39.140Z,29.40
2019-03-01T15:44:21.364Z,29.60
2019-03-01T15:47:00.636Z,29.40
2019-03-01T15:49:40.516Z,29.30
2019-03-01T15:52:20.705Z,29.40
2019-03-01T15:55:21.773Z,29.30
2019-03-01T15:58:11.266Z,29.40
2019-03-01T16:00:51.940Z,29.30
2019-03-01T16:03:29.547Z,29.40
2019-03-01T16:06:10.556Z,29.30
2019-03-01T16:08:49.451Z,29.20
2019-03-01T16:11:30.977Z,29.20
2019-03-01T16:14:15.001Z,29.20
2019-03-01T16:16:55.165Z,29.30
2019-03-01T16:19:34.668Z,29.00
2019-03-01T16:22:15.389Z,29.20
2019-03-01T16:24:58.743Z,29.20
2019-03-01T16:27:40.782Z,29.10
2019-03-01T16:30:20.614Z,29.00
2019-03-01T16:32:59.402Z,29.00
2019-03-01T16:35:38.635Z,29.20
2019-03-01T16:38:20.180Z,29.20
2019-03-01T16:41:07.455Z,29.10
2019-03-01T16:43:45.866Z,29.20
2019-03-01T16:46:28.536Z,29.10
2019-03-01T16:49:06.301Z,29.20
2019-03-01T16:51:46.777Z,29.10
2019-03-01T16:54:28.463Z,28.90
2019-03-01T16:57:19.795Z,29.00
2019-03-01T17:00:00.987Z,29.30
2019-03-01T17:02:43.173Z,29.20
2019-03-01T17:05:23.035Z,29.10
2019-03-01T17:08:05.607Z,29.10
2019-03-01T17:10:42.669Z,29.20
2019-03-01T17:13:23.588Z,29.20
2019-03-01T17:16:03.649Z,29.10
2019-03-01T17:18:44.608Z,28.80
2019-03-01T17:21:29.197Z,28.90
2019-03-01T17:24:08.600Z,29.10
2019-03-01T17:26:49.388Z,29.20
2019-03-01T17:29:31.636Z,29.20
2019-03-01T17:32:12.438Z,28.90
2019-03-01T17:34:52.186Z,29.00
2019-03-01T17:37:35.080Z,29.20
2019-03-01T17:40:16.819Z,29.10
2019-03-01T17:43:02.819Z,28.80
2019-03-01T17:45:44.179Z,28.80
2019-03-01T17:48:22.695Z,29.10
2019-03-01T17:51:01.452Z,29.10
2019-03-01T17:53:46.308Z,29.10
2019-03-01T17:56:25.054Z,28.80
2019-03-01T17:59:04.515Z,28.80
2019-03-01T18:01:44.610Z,29.00
2019-03-01T18:04:25.623Z,29.10
2019-03-01T18:07:03.588Z,29.10
2019-03-01T18:09:42.260Z,28.90
2019-03-01T18:12:20.652Z,28.90
2019-03-01T18:15:01.222Z,29.10
2019-03-01T18:17:40.706Z,29.10
2019-03-01T18:20:20.060Z,29.10
2019-03-01T18:22:59.359Z,29.00
2019-03-01T18:25:40.182Z,29.00
2019-03-01T18:28:19.550Z,29.00
2019-03-01T18:31:03.808Z,29.10
2019-03-01T18:33:42.873Z,29.00
2019-03-01T18:36:21.968Z,29.00
2019-03-01T18:39:03.679Z,29.00
2019-03-01T18:41:44.539Z,29.00
2019-03-01T18:44:27.024Z,28.90
2019-03-01T18:47:07.286Z,28.90
2019-03-01T18:49:45.096Z,28.90
2019-03-01T18:52:25.177Z,29.10
2019-03-01T18:55:04.357Z,29.10
2019-03-01T18:57:46.330Z,29.10
2019-03-01T19:00:32.371Z,29.00
2019-03-01T19:03:10.917Z,29.00
2019-03-01T19:06:04.669Z,29.00
2019-03-01T19:08:45.636Z,29.00
2019-03-01T19:11:23.410Z,28.90
2019-03-01T19:14:06.696Z,28.90
2019-03-01T19:16:46.938Z,28.90
2019-03-01T19:19:30.631Z,29.10
2019-03-01T19:22:08.321Z,29.10
2019-03-01T19:24:50.045Z,29.10
2019-03-01T19:27:28.311Z,28.90
2019-03-01T19:30:10.513Z,28.80
2019-03-01T19:32:48.619Z,28.90
2019-03-01T19:35:29.667Z,29.00
2019-03-01T19:38:07.170Z,29.00
2019-03-01T19:40:48.330Z,28.90
2019-03-01T19:43:26.183Z,28.80
2019-03-01T19:46:06.180Z,28.80
2019-03-01T19:48:43.694Z,28.90
2019-03-01T19:51:22.438Z,28.90
2019-03-01T19:54:01.199Z,28.80
2019-03-01T19:56:41.945Z,28.80
2019-03-01T19:59:24.158Z,28.90
2019-03-01T20:02:04.346Z,28.80
2019-03-01T20:04:44.280Z,28.80
2019-03-01T20:07:22.548Z,28.70
2019-03-01T20:10:01.755Z,28.80
2019-03-01T20:12:43.896Z,29.00
2019-03-01T20:15:27.731Z,29.20
2019-03-01T20:18:10.863Z,29.20
2019-03-01T20:20:53.662Z,29.20
2019-03-01T20:23:34.596Z,29.30
2019-03-01T20:26:14.262Z,29.20
2019-03-01T20:28:57.337Z,29.20
2019-03-01T20:31:36.820Z,29.00
2019-03-01T20:34:22.398Z,29.00
2019-03-01T20:37:05.005Z,29.10
2019-03-01T20:39:51.028Z,29.10
2019-03-01T20:42:30.313Z,29.00
2019-03-01T20:45:19.777Z,28.90
2019-03-01T20:48:02.858Z,28.80
2019-03-01T20:50:42.731Z,28.90
2019-03-01T20:53:24.237Z,29.00
2019-03-01T20:56:03.157Z,28.90
2019-03-01T20:58:44.273Z,28.80
2019-03-01T21:01:23.665Z,28.70
2019-03-01T21:04:04.886Z,28.80
2019-03-01T21:06:42.218Z,28.80
2019-03-01T21:09:21.051Z,28.80
2019-03-01T21:12:01.924Z,28.60
2019-03-01T21:14:43.477Z,28.70
2019-03-01T21:17:24.217Z,28.80
2019-03-01T21:20:03.171Z,28.90
2019-03-01T21:22:43.382Z,28.80
2019-03-01T21:25:22.495Z,28.60
2019-03-01T21:28:03.308Z,28.70
2019-03-01T21:30:42.647Z,28.90
2019-03-01T21:33:24.145Z,29.00
2019-03-01T21:36:08.206Z,28.80
2019-03-01T21:38:50.972Z,28.90
2019-03-01T21:41:29.314Z,29.10
2019-03-01T21:44:10.574Z,29.10
2019-03-01T21:46:50.404Z,29.30
2019-03-01T21:49:31.329Z,29.00
2019-03-01T21:52:09.415Z,28.90
2019-03-01T21:54:48.531Z,28.90
2019-03-01T21:57:27.575Z,29.00
2019-03-01T22:00:08.960Z,29.00
2019-03-01T22:02:52.896Z,28.70
2019-03-01T22:05:28.632Z,28.70
2019-03-01T22:08:09.553Z,28.90
2019-03-01T22:10:49.268Z,29.00
2019-03-01T22:13:27.431Z,29.10
2019-03-01T22:16:06.517Z,29.00
2019-03-01T22:18:44.769Z,28.90
2019-03-01T22:21:25.028Z,29.00
2019-03-01T22:24:03.219Z,28.90
2019-03-01T22:26:42.721Z,28.70
2019-03-01T22:29:21.034Z,28.60
2019-03-01T22:32:00.779Z,28.70
2019-03-01T22:34:38.288Z,28.90
2019-03-01T22:37:18.684Z,28.90
2019-03-01T22:40:00.547Z,28.70
2019-03-01T22:42:39.649Z,28.60
2019-03-01T22:45:19.024Z,28.80
2019-03-01T22:47:58.702Z,29.00
2019-03-01T22:50:39.474Z,29.00
2019-03-01T22:53:19.037Z,28.60
2019-03-01T22:55:57.746Z,28.50
2019-03-01T22:58:38.110Z,28.80
2019-03-01T23:01:23.192Z,28.80
2019-03-01T23:04:06.108Z,28.70
2019-03-01T23:06:44.021Z,28.50
2019-03-01T23:09:23.030Z,28.60
2019-03-01T23:12:08.050Z,28.70
2019-03-01T23:14:48.065Z,28.90
2019-03-01T23:17:27.582Z,28.70
2019-03-01T23:20:08.288Z,28.60
2019-03-01T23:22:47.489Z,28.80
2019-03-01T23:25:27.582Z,29.00
2019-03-01T23:28:08.118Z,28.90
2019-03-01T23:30:48.935Z,28.60
2019-03-01T23:33:32.739Z,28.60
2019-03-01T23:36:20.709Z,28.80
2019-03-01T23:39:00.360Z,28.90
2019-03-01T23:41:43.507Z,28.70
2019-03-01T23:44:20.803Z,28.60
2019-03-01T23:47:02.827Z,28.70
2019-03-01T23:49:45.554Z,28.90
2019-03-01T23:52:25.193Z,29.00
2019-03-01T23:55:06.453Z,28.80
2019-03-01T23:57:48.072Z,28.60
